| time (UTC) | temp F | wind direction | speed MPH | gust MPH | rain 1hr in | rain 24hr in | rain mn in | humidity % | barometer mb |
| 20260504195959 | 0 | 0.0 | 0.0 | 0.00 | 0.00 | 0.00 | |||
| 20260504195300 | 0 | 0.0 | 0.0 | 0.00 | 0.00 | 0.00 | |||
| 20260504195144 | 0 | 0.0 | 0.0 | 0.00 | 0.00 | 0.00 | |||
| 20260504194508 | 80 | 284 | 5.0 | 15.0 | 0.00 | 0.00 | 0.00 | 41 | 1007.0 |
| 20260504194149 | 0 | 0.0 | 0.0 | 0.00 | 0.00 | 0.00 | |||
| 20260504193611 | 0 | 0.0 | 0.0 | 0.00 | 0.00 | 0.00 | |||
| 20260504193122 | 0 | 0.0 | 0.0 | 0.00 | 0.00 | 0.00 | |||
| 20260504193043 | 79 | 184 | 6.0 | 16.0 | 0.00 | 0.00 | 0.00 | 41 | 1007.0 |
| 20260504192621 | 0 | 0.0 | 0.0 | 0.00 | 0.00 | 0.00 | |||
| 20260504192114 | 0 | 0.0 | 0.0 | 0.00 | 0.00 | 0.00 | |||
| 20260504191604 | 79 | 265 | 7.0 | 17.0 | 0.00 | 0.00 | 0.00 | 40 | 1007.3 |
| 20260504191143 | 0 | 0.0 | 0.0 | 0.00 | 0.00 | 0.00 | |||
| 20260504190638 | 0 | 0.0 | 0.0 | 0.00 | 0.00 | 0.00 | |||
| 20260504190132 | 0 | 0.0 | 0.0 | 0.00 | 0.00 | 0.00 | |||
| 20260504190037 | 79 | 197 | 6.0 | 15.0 | 0.00 | 0.00 | 0.00 | 41 | 1007.5 |
| 20260504185611 | 0 | 0.0 | 0.0 | 0.00 | 0.00 | 0.00 | |||
| 20260504185107 | 0 | 0.0 | 16.0 | 0.00 | 0.00 | 0.00 | |||
| 20260504184831 | 79 | 271 | 7.0 | 16.0 | 0.00 | 0.00 | 0.00 | 41 | 995.8 |
| 20260504184624 | 79 | 237 | 7.0 | 16.0 | 0.00 | 0.00 | 0.00 | 41 | 1007.8 |
| 20260504184122 | 79 | 273 | 7.0 | 16.0 | 0.00 | 0.00 | 0.00 | 41 | 995.9 |
| 20260504183605 | 0 | 0.0 | 0.0 | 0.00 | 0.00 | 0.00 | |||
| 20260504183110 | 80 | 127 | 4.0 | 14.0 | 0.00 | 0.00 | 0.00 | 42 | 1007.7 |
| 20260504183102 | 0 | 0.0 | 3.0 | 0.00 | 0.00 | 0.00 | |||
| 20260504182604 | 80 | 189 | 6.0 | 21.0 | 0.00 | 0.00 | 0.00 | 41 | 995.8 |
| 20260504182037 | 80 | 300 | 6.0 | 21.0 | 0.00 | 0.00 | 0.00 | 42 | 995.9 |
| 20260504181748 | 79 | 246 | 7.0 | 7.0 | 0.00 | 0.00 | 0.00 | 40 | 996.1 |
| 20260504181610 | 79 | 193 | 4.0 | 21.0 | 0.00 | 0.00 | 0.00 | 42 | 1007.9 |
| 20260504180939 | 0 | 0.0 | 0.0 | 0.00 | 0.00 | 0.00 | |||
| 20260504180447 | 0 | 0.0 | 19.0 | 0.00 | 0.00 | 0.00 | |||
| 20260504180228 | 79 | 232 | 7.0 | 19.0 | 0.00 | 0.00 | 0.00 | 44 | 996.1 |
| 20260504180020 | 78 | 238 | 6.0 | 19.0 | 0.00 | 0.00 | 0.00 | 41 | 1008.0 |
| 20260504175436 | 78 | 143 | 7.0 | 17.0 | 0.00 | 0.00 | 0.00 | 41 | 996.1 |
| 20260504174905 | 78 | 290 | 8.0 | 18.0 | 0.00 | 0.00 | 0.00 | 43 | 996.1 |
| 20260504174508 | 78 | 333 | 9.0 | 18.0 | 0.00 | 0.00 | 0.00 | 41 | 1008.1 |
| 20260504174405 | 78 | 279 | 7.0 | 18.0 | 0.00 | 0.00 | 0.00 | 42 | 996.2 |
| 20260504174228 | 78 | 248 | 6.0 | 16.0 | 0.00 | 0.00 | 0.00 | 41 | 996.2 |
| 20260504173336 | 79 | 284 | 6.0 | 15.0 | 0.00 | 0.00 | 0.00 | 44 | 996.3 |
| 20260504173141 | 78 | 253 | 6.0 | 15.0 | 0.00 | 0.00 | 0.00 | 42 | 1008.3 |
| 20260504172852 | 78 | 132 | 6.0 | 15.0 | 0.00 | 0.00 | 0.00 | 43 | 996.3 |
| 20260504172324 | 0 | 0.0 | 0.0 | 0.00 | 0.00 | 0.00 | |||
| 20260504172006 | 0 | 0.0 | 18.0 | 0.00 | 0.00 | 0.00 | |||
| 20260504171849 | 0 | 0.0 | 0.0 | 0.00 | 0.00 | 0.00 | |||
| 20260504171508 | 78 | 188 | 5.0 | 23.0 | 0.00 | 0.00 | 0.00 | 43 | 1008.4 |
| 20260504170825 | 78 | 236 | 6.0 | 18.0 | 0.00 | 0.00 | 0.00 | 43 | 996.6 |
| 20260504170310 | 77 | 228 | 7.0 | 18.0 | 0.00 | 0.00 | 0.00 | 45 | 996.6 |
| 20260504170106 | 77 | 221 | 5.0 | 12.0 | 0.00 | 0.00 | 0.00 | 44 | 1008.7 |
| 20260504160200 | 75 | 277 | 5.0 | 11.0 | 0.00 | 0.00 | 0.00 | 48 | 1009.3 |
| 20260504160122 | 76 | 121 | 4.0 | 11.0 | 0.00 | 0.00 | 0.00 | 48 | 997.3 |
| 20260504151019 | 72 | 141 | 5.0 | 4.0 | 0.00 | 0.00 | 0.00 | 55 | 997.6 |
| 20260504141102 | 0 | 0.0 | 0.0 | 0.00 | 0.00 | 0.00 | |||
| 20260504140547 | 0 | 0.0 | 6.0 | 0.00 | 0.00 | 0.00 | |||
| 20260504130651 | 63 | 281 | 3.0 | 10.0 | 0.00 | 0.00 | 0.00 | 75 | 998.3 |
| 20260504130436 | 63 | 277 | 2.0 | 6.0 | 0.00 | 0.00 | 0.00 | 74 | 998.4 |
| 20260504120202 | 60 | 162 | 1.0 | 4.0 | 0.00 | 0.00 | 0.00 | 79 | 998.1 |
| 20260504110558 | 60 | 256 | 1.0 | 6.0 | 0.00 | 0.00 | 0.00 | 78 | 997.5 |
| 20260504100451 | 62 | 271 | 2.0 | 9.0 | 0.00 | 0.00 | 0.00 | 75 | 997.6 |
| 20260504081641 | 0 | 0.0 | 0.0 | 0.00 | 0.00 | 0.00 | |||
| 20260504081521 | 63 | 274 | 1.0 | 5.0 | 0.00 | 0.00 | 0.00 | 70 | 1009.8 |
| 20260504081141 | 0 | 0.0 | 0.0 | 0.00 | 0.00 | 0.00 | |||
| 20260504080616 | 0 | 0.0 | 0.0 | 0.00 | 0.00 | 0.00 | |||
| 20260504080509 | 0 | 0.0 | 0.0 | 0.00 | 0.00 | 0.00 | |||
| 20260504080104 | 63 | 269 | 2.0 | 7.0 | 0.00 | 0.00 | 0.00 | 69 | 1009.8 |
| 20260504060145 | 64 | 250 | 2.0 | 6.0 | 0.00 | 0.00 | 0.00 | 66 | 1011.3 |
| 20260504060106 | 65 | 167 | 2.0 | 8.0 | 0.00 | 0.00 | 0.00 | 65 | 999.2 |
| 20260504050724 | 65 | 296 | 2.0 | 7.0 | 0.00 | 0.00 | 0.00 | 65 | 999.5 |
| 20260504050526 | 65 | 266 | 1.0 | 7.0 | 0.00 | 0.00 | 0.00 | 65 | 999.5 |
| 20260504045958 | 0 | 0.0 | 0.0 | 0.00 | 0.00 | 0.00 | |||
| 20260504045202 | 0 | 0.0 | 4.0 | 0.00 | 0.00 | 0.00 | |||
| 20260504044717 | 65 | 255 | 2.0 | 7.0 | 0.00 | 0.00 | 0.00 | 65 | 999.7 |
| 20260504044512 | 64 | 194 | 0.0 | 7.0 | 0.00 | 0.00 | 0.00 | 65 | 1012.0 |
| 20260504044211 | 65 | 211 | 2.0 | 7.0 | 0.00 | 0.00 | 0.00 | 65 | 999.7 |
| 20260504043624 | 64 | 338 | 2.0 | 4.0 | 0.00 | 0.00 | 0.00 | 66 | 999.8 |
| 20260504043158 | 64 | 294 | 1.0 | 4.0 | 0.00 | 0.00 | 0.00 | 65 | 1012.0 |
| 20260504043115 | 64 | 309 | 2.0 | 4.0 | 0.00 | 0.00 | 0.00 | 66 | 999.9 |
| 20260504042916 | 64 | 146 | 2.0 | 8.0 | 0.00 | 0.00 | 0.00 | 65 | 999.8 |
| 20260504042512 | 64 | 281 | 2.0 | 8.0 | 0.00 | 0.00 | 0.00 | 66 | 999.8 |
| 20260504041907 | 64 | 312 | 2.0 | 7.0 | 0.00 | 0.00 | 0.00 | 66 | 999.8 |
| 20260504041544 | 64 | 297 | 2.0 | 7.0 | 0.00 | 0.00 | 0.00 | 66 | 1012.0 |
| 20260504041059 | 64 | 261 | 2.0 | 4.0 | 0.00 | 0.00 | 0.00 | 66 | 999.8 |
| 20260504040627 | 64 | 129 | 1.0 | 6.0 | 0.00 | 0.00 | 0.00 | 66 | 999.8 |
| 20260504040020 | 63 | 186 | 0.0 | 6.0 | 0.00 | 0.00 | 0.00 | 66 | 1012.1 |
| 20260504035534 | 0 | 0.0 | 0.0 | 0.00 | 0.00 | 0.00 | |||
| 20260504035313 | 0 | 0.0 | 0.0 | 0.00 | 0.00 | 0.00 | |||
| 20260504034540 | 0 | 0.0 | 0.0 | 0.00 | 0.00 | 0.00 | |||
| 20260504034259 | 0 | 0.0 | 0.0 | 0.00 | 0.00 | 0.00 | |||
| 20260504033503 | 0 | 0.0 | 1.0 | 0.00 | 0.00 | 0.00 | |||
| 20260504033036 | 64 | 201 | 1.0 | 2.0 | 0.00 | 0.00 | 0.00 | 65 | 1012.2 |
| 20260504032917 | 64 | 230 | 1.0 | 2.0 | 0.00 | 0.00 | 0.00 | 65 | |
| 20260504032753 | 65 | 230 | 1.0 | 1.0 | 0.00 | 0.00 | 0.00 | 64 | 1000.0 |
| 20260504032031 | 65 | 241 | 1.0 | 2.0 | 0.00 | 0.00 | 0.00 | 64 | 1012.1 |
| 20260504031608 | 64 | 279 | 0.0 | 3.0 | 0.00 | 0.00 | 0.00 | 64 | 1012.3 |
| 20260504031523 | 65 | 279 | 1.0 | 2.0 | 0.00 | 0.00 | 0.00 | 64 | 1012.0 |
| 20260504031155 | 0 | 0.0 | 0.0 | 0.00 | 0.00 | 0.00 | |||
| 20260504031104 | 0 | 0.0 | 0.0 | 0.00 | 0.00 | 0.00 | |||
| 20260504030324 | 0 | 0.0 | 0.0 | 0.00 | 0.00 | 0.00 | |||
| 20260504030053 | 65 | 279 | 2.0 | 4.0 | 0.00 | 0.00 | 0.00 | 63 | 1012.4 |
| 20260504025439 | 0 | 0.0 | 0.0 | 0.00 | 0.00 | 0.00 | |||
| 20260504024856 | 0 | 0.0 | 0.0 | 0.00 | 0.00 | 0.00 | |||
| 20260504024517 | 65 | 270 | 2.0 | 7.0 | 0.00 | 0.00 | 0.00 | 63 | 1012.4 |
| 20260504024349 | 0 | 0.0 | 0.0 | 0.00 | 0.00 | 0.00 | |||
| 20260504023820 | 0 | 0.0 | 0.0 | 0.00 | 0.00 | 0.00 | |||
| 20260504023328 | 0 | 0.0 | 0.0 | 0.00 | 0.00 | 0.00 | |||
| 20260504023054 | 65 | 151 | 0.0 | 4.0 | 0.00 | 0.00 | 0.00 | 62 | 1012.3 |
| 20260504022808 | 0 | 0.0 | 0.0 | 0.00 | 0.00 | 0.00 | |||
| 20260504022251 | 0 | 0.0 | 0.0 | 0.00 | 0.00 | 0.00 | |||
| 20260504021748 | 0 | 0.0 | 0.0 | 0.00 | 0.00 | 0.00 | |||
| 20260504021644 | 0 | 0.0 | 0.0 | 0.00 | 0.00 | 0.00 | |||
| 20260504021533 | 65 | 298 | 1.0 | 4.0 | 0.00 | 0.00 | 0.00 | 61 | 1012.2 |
| 20260504020752 | 0 | 0.0 | 0.0 | 0.00 | 0.00 | 0.00 | |||
| 20260504020605 | 0 | 0.0 | 0.0 | 0.00 | 0.00 | 0.00 | |||
| 20260504020049 | 65 | 222 | 0.0 | 2.0 | 0.00 | 0.00 | 0.00 | 60 | 1012.1 |
| 20260504015707 | 0 | 0.0 | 0.0 | 0.00 | 0.00 | 0.00 | |||
| 20260504015158 | 0 | 0.0 | 0.0 | 0.00 | 0.00 | 0.00 | |||
| 20260504014710 | 0 | 0.0 | 0.0 | 0.00 | 0.00 | 0.00 | |||
| 20260504014609 | 66 | 145 | 0.0 | 4.0 | 0.00 | 0.00 | 0.00 | 59 | 1011.9 |
| 20260504014134 | 0 | 0.0 | 0.0 | 0.00 | 0.00 | 0.00 | |||
| 20260504013642 | 0 | 0.0 | 0.0 | 0.00 | 0.00 | 0.00 | |||
| 20260504013137 | 0 | 0.0 | 0.0 | 0.00 | 0.00 | 0.00 | |||
| 20260504013133 | 67 | 151 | 0.0 | 2.0 | 0.00 | 0.00 | 0.00 | 57 | 1011.9 |
| 20260504012633 | 0 | 0.0 | 0.0 | 0.00 | 0.00 | 0.00 | |||
| 20260504012514 | 0 | 0.0 | 0.0 | 0.00 | 0.00 | 0.00 | |||
| 20260504011605 | 67 | 198 | 1.0 | 4.0 | 0.00 | 0.00 | 0.00 | 55 | 1011.9 |
| 20260504011601 | 0 | 0.0 | 0.0 | 0.00 | 0.00 | 0.00 | |||
| 20260504011055 | 0 | 0.0 | 0.0 | 0.00 | 0.00 | 0.00 | |||
| 20260504010541 | 0 | 0.0 | 0.0 | 0.00 | 0.00 | 0.00 | |||
| 20260504010106 | 68 | 254 | 1.0 | 6.0 | 0.00 | 0.00 | 0.00 | 53 | 1011.7 |
| 20260504010014 | 0 | 0.0 | 0.0 | 0.00 | 0.00 | 0.00 | |||
| 20260504005533 | 0 | 0.0 | 0.0 | 0.00 | 0.00 | 0.00 | |||
| 20260504005004 | 0 | 0.0 | 0.0 | 0.00 | 0.00 | 0.00 | |||
| 20260504004530 | 69 | 190 | 2.0 | 6.0 | 0.00 | 0.00 | 0.00 | 52 | 1011.7 |
| 20260504004451 | 0 | 0.0 | 0.0 | 0.00 | 0.00 | 0.00 | |||
| 20260504003920 | 0 | 0.0 | 0.0 | 0.00 | 0.00 | 0.00 | |||
| 20260504003419 | 0 | 0.0 | 0.0 | 0.00 | 0.00 | 0.00 | |||
| 20260504003015 | 70 | 134 | 1.0 | 10.0 | 0.00 | 0.00 | 0.00 | 50 | 1011.9 |
| 20260504002931 | 0 | 0.0 | 0.0 | 0.00 | 0.00 | 0.00 | |||
| 20260504002425 | 0 | 0.0 | 0.0 | 0.00 | 0.00 | 0.00 | |||
| 20260504001919 | 0 | 0.0 | 0.0 | 0.00 | 0.00 | 0.00 | |||
| 20260504001618 | 70 | 203 | 2.0 | 8.0 | 0.00 | 0.00 | 0.00 | 48 | 1011.9 |
| 20260504001406 | 0 | 0.0 | 0.0 | 0.00 | 0.00 | 0.00 | |||
| 20260504000911 | 0 | 0.0 | 0.0 | 0.00 | 0.00 | 0.00 | |||
| 20260504000413 | 0 | 0.0 | 0.0 | 0.00 | 0.00 | 0.00 | |||
| 20260504000004 | 72 | 31 | 2.0 | 8.0 | 0.00 | 0.00 | 0.00 | 46 | 1012.0 |
| 20260503235845 | 0 | 0.0 | 0.0 | 0.00 | 0.00 | 0.00 | |||
| 20260503235322 | 0 | 0.0 | 7.0 | 0.00 | 0.00 | 0.00 | |||
| 20260503234748 | 73 | 294 | 2.0 | 7.0 | 0.00 | 0.00 | 0.00 | 44 | 999.8 |
| 20260503234507 | 73 | 218 | 2.0 | 7.0 | 0.00 | 0.00 | 0.00 | 44 | 1012.1 |
| 20260503234159 | 73 | 294 | 3.0 | 10.0 | 0.00 | 0.00 | 0.00 | 43 | 999.9 |
| 20260503233712 | 73 | 156 | 3.0 | 13.0 | 0.00 | 0.00 | 0.00 | 43 | 999.9 |
| 20260503233213 | 74 | 233 | 3.0 | 13.0 | 0.00 | 0.00 | 0.00 | 43 | 999.9 |
| 20260503233040 | 73 | 154 | 2.0 | 13.0 | 0.00 | 0.00 | 0.00 | 42 | 1012.3 |
| 20260503232708 | 74 | 169 | 4.0 | 11.0 | 0.00 | 0.00 | 0.00 | 43 | 1000.1 |
| 20260503232158 | 74 | 262 | 4.0 | 11.0 | 0.00 | 0.00 | 0.00 | 43 | 1000.0 |
| 20260503231658 | 74 | 284 | 4.0 | 9.0 | 0.00 | 0.00 | 0.00 | 42 | 1000.2 |
| 20260503231537 | 73 | 288 | 3.0 | 11.0 | 0.00 | 0.00 | 0.00 | 42 | 1012.4 |
| 20260503231155 | 0 | 231 | 4.0 | 11.0 | 0.00 | 0.00 | 0.00 | ||
| 20260503230653 | 74 | 237 | 4.0 | 11.0 | 0.00 | 0.00 | 0.00 | 41 | 1000.2 |
| 20260503230150 | 0 | 0.0 | 0.0 | 0.00 | 0.00 | 0.00 | |||
| 20260503230107 | 73 | 292 | 3.0 | 12.0 | 0.00 | 0.00 | 0.00 | 40 | 1012.7 |
| 20260503225642 | 0 | 0.0 | 0.0 | 0.00 | 0.00 | 0.00 | |||
| 20260503225132 | 0 | 0.0 | 9.0 | 0.00 | 0.00 | 0.00 | |||
| 20260503224826 | 74 | 225 | 3.0 | 9.0 | 0.00 | 0.00 | 0.00 | 39 | 1000.5 |
| 20260503224508 | 74 | 290 | 5.0 | 10.0 | 0.00 | 0.00 | 0.00 | 38 | 1012.7 |
| 20260503224429 | 0 | 292 | 3.0 | 11.0 | 0.00 | 0.00 | 0.00 | ||
| 20260503223600 | 75 | 265 | 3.0 | 11.0 | 0.00 | 0.00 | 0.00 | 39 | 1000.6 |
| 20260503223055 | 74 | 174 | 3.0 | 7.0 | 0.00 | 0.00 | 0.00 | 39 | 1000.6 |
| 20260503223003 | 74 | 191 | 1.0 | 7.0 | 0.00 | 0.00 | 0.00 | 40 | 1013.0 |
| 20260503222512 | 0 | 0.0 | 0.0 | 0.00 | 0.00 | 0.00 | |||
| 20260503222013 | 0 | 0.0 | 0.0 | 0.00 | 0.00 | 0.00 | |||
| 20260503221510 | 73 | 249 | 4.0 | 16.0 | 0.00 | 0.00 | 0.00 | 39 | 1013.3 |
| 20260503221507 | 0 | 0.0 | 0.0 | 0.00 | 0.00 | 0.00 | |||
| 20260503221010 | 0 | 0.0 | 0.0 | 0.00 | 0.00 | 0.00 | |||
| 20260503220514 | 0 | 0.0 | 0.0 | 0.00 | 0.00 | 0.00 | |||
| 20260503220029 | 74 | 277 | 4.0 | 11.0 | 0.00 | 0.00 | 0.00 | 39 | 1013.4 |
| 20260503220010 | 0 | 0.0 | 0.0 | 0.00 | 0.00 | 0.00 | |||
| 20260503215841 | 0 | 0.0 | 16.0 | 0.00 | 0.00 | 0.00 | |||
| 20260503215007 | 74 | 292 | 4.0 | 16.0 | 0.00 | 0.00 | 0.00 | 39 | 1001.2 |
| 20260503214512 | 74 | 169 | 4.0 | 10.0 | 0.00 | 0.00 | 0.00 | 38 | 1001.3 |
| 20260503213947 | 74 | 148 | 3.0 | 11.0 | 0.00 | 0.00 | 0.00 | 39 | 1001.4 |
| 20260503213434 | 74 | 319 | 4.0 | 11.0 | 0.00 | 0.00 | 0.00 | 38 | 1001.4 |
| 20260503213027 | 73 | 186 | 2.0 | 12.0 | 0.00 | 0.00 | 0.00 | 37 | 1013.8 |
| 20260503212922 | 74 | 152 | 4.0 | 18.0 | 0.00 | 0.00 | 0.00 | 38 | 1001.5 |
| 20260503212423 | 73 | 246 | 5.0 | 18.0 | 0.00 | 0.00 | 0.00 | 38 | 1001.5 |
| 20260503211902 | 73 | 279 | 5.0 | 4.0 | 0.00 | 0.00 | 0.00 | 38 | 1013.6 |
| 20260503211558 | 73 | 284 | 7.0 | 18.0 | 0.00 | 0.00 | 0.00 | 37 | 1013.9 |
| 20260503211354 | 0 | 0.0 | 0.0 | 0.00 | 0.00 | 0.00 | |||
| 20260503210904 | 0 | 0.0 | 0.0 | 0.00 | 0.00 | 0.00 | |||
| 20260503210342 | 0 | 0.0 | 14.0 | 0.00 | 0.00 | 0.00 | |||
| 20260503210019 | 72 | 190 | 5.0 | 15.0 | 0.00 | 0.00 | 0.00 | 38 | 1014.2 |
| 20260503205829 | 73 | 244 | 4.0 | 14.0 | 0.00 | 0.00 | 0.00 | 37 | 1002.0 |
| 20260503205304 | 0 | 0.0 | 0.0 | 0.00 | 0.00 | 0.00 | |||
| 20260503204830 | 0 | 0.0 | 12.0 | 0.00 | 0.00 | 0.00 | |||
| 20260503204617 | 73 | 285 | 5.0 | 12.0 | 0.00 | 0.00 | 0.00 | 38 | 1002.3 |
| 20260503204507 | 72 | 243 | 3.0 | 12.0 | 0.00 | 0.00 | 0.00 | 39 | 1014.6 |